Abbott
UTM 11U Easting = 46 4305, Northing = 56 77958     Elevation = 2130 m
Note to Users: This site contains raw data and is presented "as is" and in real time. Although reasonable care is exercised in providing this information, inaccuracies or omissions may occur due to the properties of weather and data collection systems. The Avalanche Control Section, responsible for its collection, disclaims all responsibility for the accuracy of the information.
Date Max Temp (deg C) Min Temp (deg C) Rel Hum (%) 1 Hr Precip (mm) HS (cm) Wind Dir (1 Hr Avg) Wind Spd (kph) (1 Hr Avg) Max Wind Speed (kph)
2018-12-13 03:00 -8 -8 93 1.1 102 SE 7 24
2018-12-13 04:00 -8 -8 93 1.0 101 E 5 14
2018-12-13 05:00 -8 -8 93 1.4 103 NW 3 11
2018-12-13 06:00 -7 -8 93 0.7 106 SE 5 13
2018-12-13 07:00 -7 -7 93 1.0 109 SW 2 8
2018-12-13 08:00 -7 -7 93 0.7 113 E 1 5
2018-12-13 09:00 -6 -7 93 6.3 118 SE 1 5
2018-12-13 10:00 -6 -7 94 1.3 119 NW 0 3
2018-12-13 11:00 -6 -6 94 1.4 119 N 0 0
2018-12-13 12:00 -5 -6 94 5.3 118 N 0 0
2018-12-13 13:00 -5 -6 94 2.0 122 E 2 11
2018-12-13 14:00 -5 -6 94 2.1 125 S 2 10
2018-12-13 15:00 -5 -6 94 1.0 113 S 4 14
2018-12-13 16:00 -5 -6 94 1.1 125 SW 3 12
2018-12-13 17:00 -5 -6 94 1.0 126 NW 4 12
2018-12-13 18:00 -5 -6 95 0.9 125 NE 4 9
2018-12-13 19:00 -5 -5 95 0.5 126 S 11 24
2018-12-13 20:00 -5 -5 95 0.4 127 S 19 47
2018-12-13 21:00 -5 -5 95 0.7 124 S 14 27
2018-12-13 22:00 -5 -5 95 1.2 124 SE 15 31
2018-12-13 23:00 -5 -5 95 0.0 124 SE 18 34
2018-12-14 00:00 -4 -5 95 0.0 124 SE 18 37
2018-12-14 01:00 -4 -5 94 1.1 125 SE 23 40